<?xml version="1.0" encoding="UTF-8" standalone="no" ?>
<gpx xmlns="http://www.topografix.com/GPX/1/1" xmlns:xsi="http://www.w3.org/2001/XMLSchema-instance" xsi:schemaLocation="http://www.topografix.com/GPX/1/1 http://www.topografix.com/GPX/1/1/gpx.xsd" version="1.1" creator="VisuGPX - https://www.visugpx.com">
  <metadata>
    <name>Forêt de Buzet Technique</name>
  </metadata>
  <trk>
    <name><![CDATA[Forêt de Buzet Technique]]></name>
    <extensions>
      <line xmlns="http://www.topografix.com/GPX/gpx_style/0/2">
        <color>098b09</color>
        <width>4</width>
          <extensions>
            <sens>1</sens>
          </extensions>
      </line>
    </extensions>
    <trkseg>
      <trkpt lat="43.77059" lon="1.58992">
        <ele>124.1175</ele>
        <time>2015-12-24T12:39:24Z</time>
      </trkpt>
      <trkpt lat="43.77064" lon="1.58915">
        <ele>124.144882</ele>
        <time>2015-12-24T12:39:43Z</time>
      </trkpt>
      <trkpt lat="43.77098" lon="1.58804">
        <ele>127.008591</ele>
        <time>2015-12-24T12:40:14Z</time>
      </trkpt>
      <trkpt lat="43.77189" lon="1.58602">
        <ele>139.651459</ele>
        <time>2015-12-24T12:41:46Z</time>
      </trkpt>
      <trkpt lat="43.77225" lon="1.58426">
        <ele>154.678406</ele>
        <time>2015-12-24T12:42:52Z</time>
      </trkpt>
      <trkpt lat="43.77267" lon="1.58373">
        <ele>154.512802</ele>
        <time>2015-12-24T12:43:03Z</time>
      </trkpt>
      <trkpt lat="43.77302" lon="1.5831">
        <ele>154.896683</ele>
        <time>2015-12-24T12:43:13Z</time>
      </trkpt>
      <trkpt lat="43.7735" lon="1.58251">
        <ele>155.173752</ele>
        <time>2015-12-24T12:43:24Z</time>
      </trkpt>
      <trkpt lat="43.77339" lon="1.58222">
        <ele>155.605896</ele>
        <time>2015-12-24T12:43:29Z</time>
      </trkpt>
      <trkpt lat="43.77333" lon="1.58187">
        <ele>155.221405</ele>
        <time>2015-12-24T12:43:34Z</time>
      </trkpt>
      <trkpt lat="43.77317" lon="1.58159">
        <ele>154.764114</ele>
        <time>2015-12-24T12:43:39Z</time>
      </trkpt>
      <trkpt lat="43.77316" lon="1.58144">
        <ele>154.481964</ele>
        <time>2015-12-24T12:43:43Z</time>
      </trkpt>
      <trkpt lat="43.77349" lon="1.58188">
        <ele>155.141693</ele>
        <time>2015-12-24T12:43:54Z</time>
      </trkpt>
      <trkpt lat="43.77366" lon="1.58186">
        <ele>155.032455</ele>
        <time>2015-12-24T12:43:58Z</time>
      </trkpt>
      <trkpt lat="43.77385" lon="1.58222">
        <ele>154.514252</ele>
        <time>2015-12-24T12:44:06Z</time>
      </trkpt>
      <trkpt lat="43.77416" lon="1.58265">
        <ele>151.450348</ele>
        <time>2015-12-24T12:44:16Z</time>
      </trkpt>
      <trkpt lat="43.77434" lon="1.58268">
        <ele>149.343933</ele>
        <time>2015-12-24T12:44:19Z</time>
      </trkpt>
      <trkpt lat="43.77442" lon="1.58264">
        <ele>148.832092</ele>
        <time>2015-12-24T12:44:21Z</time>
      </trkpt>
      <trkpt lat="43.77464" lon="1.58277">
        <ele>144.755203</ele>
        <time>2015-12-24T12:44:27Z</time>
      </trkpt>
      <trkpt lat="43.77478" lon="1.58275">
        <ele>143.237869</ele>
        <time>2015-12-24T12:44:32Z</time>
      </trkpt>
      <trkpt lat="43.77504" lon="1.58293">
        <ele>136.330231</ele>
        <time>2015-12-24T12:44:42Z</time>
      </trkpt>
      <trkpt lat="43.77532" lon="1.58287">
        <ele>134.018524</ele>
        <time>2015-12-24T12:44:46Z</time>
      </trkpt>
      <trkpt lat="43.77556" lon="1.58301">
        <ele>130.266968</ele>
        <time>2015-12-24T12:44:51Z</time>
      </trkpt>
      <trkpt lat="43.77564" lon="1.58312">
        <ele>129.231262</ele>
        <time>2015-12-24T12:44:53Z</time>
      </trkpt>
      <trkpt lat="43.77577" lon="1.58317">
        <ele>128.442734</ele>
        <time>2015-12-24T12:44:56Z</time>
      </trkpt>
      <trkpt lat="43.77599" lon="1.58316">
        <ele>127.768341</ele>
        <time>2015-12-24T12:45:01Z</time>
      </trkpt>
      <trkpt lat="43.7764" lon="1.58292">
        <ele>127.048126</ele>
        <time>2015-12-24T12:45:09Z</time>
      </trkpt>
      <trkpt lat="43.77648" lon="1.58278">
        <ele>127.042328</ele>
        <time>2015-12-24T12:45:11Z</time>
      </trkpt>
      <trkpt lat="43.77649" lon="1.58259">
        <ele>127.246666</ele>
        <time>2015-12-24T12:45:14Z</time>
      </trkpt>
      <trkpt lat="43.77667" lon="1.58249">
        <ele>126.722099</ele>
        <time>2015-12-24T12:45:17Z</time>
      </trkpt>
      <trkpt lat="43.77697" lon="1.5821">
        <ele>126.111153</ele>
        <time>2015-12-24T12:45:23Z</time>
      </trkpt>
      <trkpt lat="43.77711" lon="1.5818">
        <ele>126.636719</ele>
        <time>2015-12-24T12:45:29Z</time>
      </trkpt>
      <trkpt lat="43.77719" lon="1.58173">
        <ele>126.796432</ele>
        <time>2015-12-24T12:45:31Z</time>
      </trkpt>
      <trkpt lat="43.77785" lon="1.58176">
        <ele>126</ele>
        <time>2015-12-24T12:45:43Z</time>
      </trkpt>
      <trkpt lat="43.77826" lon="1.58111">
        <ele>126</ele>
        <time>2015-12-24T12:45:55Z</time>
      </trkpt>
      <trkpt lat="43.77828" lon="1.58099">
        <ele>126.029533</ele>
        <time>2015-12-24T12:45:58Z</time>
      </trkpt>
      <trkpt lat="43.77822" lon="1.58083">
        <ele>126.281754</ele>
        <time>2015-12-24T12:46:02Z</time>
      </trkpt>
      <trkpt lat="43.77819" lon="1.5804">
        <ele>127.084846</ele>
        <time>2015-12-24T12:46:17Z</time>
      </trkpt>
      <trkpt lat="43.77832" lon="1.58006">
        <ele>127.270752</ele>
        <time>2015-12-24T12:46:28Z</time>
      </trkpt>
      <trkpt lat="43.77837" lon="1.57948">
        <ele>129.825714</ele>
        <time>2015-12-24T12:46:45Z</time>
      </trkpt>
      <trkpt lat="43.77848" lon="1.57914">
        <ele>130.495148</ele>
        <time>2015-12-24T12:47:01Z</time>
      </trkpt>
      <trkpt lat="43.77844" lon="1.57875">
        <ele>137.318161</ele>
        <time>2015-12-24T12:47:20Z</time>
      </trkpt>
      <trkpt lat="43.77853" lon="1.57852">
        <ele>138.817032</ele>
        <time>2015-12-24T12:47:33Z</time>
      </trkpt>
      <trkpt lat="43.77849" lon="1.57773">
        <ele>148.708603</ele>
        <time>2015-12-24T12:48:22Z</time>
      </trkpt>
      <trkpt lat="43.77842" lon="1.57761">
        <ele>150.088516</ele>
        <time>2015-12-24T12:48:31Z</time>
      </trkpt>
      <trkpt lat="43.77849" lon="1.57739">
        <ele>150.6716</ele>
        <time>2015-12-24T12:48:44Z</time>
      </trkpt>
      <trkpt lat="43.77871" lon="1.57725">
        <ele>148.328979</ele>
        <time>2015-12-24T12:48:51Z</time>
      </trkpt>
      <trkpt lat="43.77879" lon="1.57712">
        <ele>146.6315</ele>
        <time>2015-12-24T12:48:54Z</time>
      </trkpt>
      <trkpt lat="43.779" lon="1.57699">
        <ele>143.49675</ele>
        <time>2015-12-24T12:48:59Z</time>
      </trkpt>
      <trkpt lat="43.77911" lon="1.57681">
        <ele>142.166321</ele>
        <time>2015-12-24T12:49:01Z</time>
      </trkpt>
      <trkpt lat="43.77937" lon="1.5766">
        <ele>138.683746</ele>
        <time>2015-12-24T12:49:07Z</time>
      </trkpt>
      <trkpt lat="43.77941" lon="1.5765">
        <ele>137.631104</ele>
        <time>2015-12-24T12:49:09Z</time>
      </trkpt>
      <trkpt lat="43.77966" lon="1.57639">
        <ele>134.581665</ele>
        <time>2015-12-24T12:49:14Z</time>
      </trkpt>
      <trkpt lat="43.78041" lon="1.57659">
        <ele>128.180954</ele>
        <time>2015-12-24T12:49:29Z</time>
      </trkpt>
      <trkpt lat="43.78065" lon="1.57637">
        <ele>127.717133</ele>
        <time>2015-12-24T12:49:35Z</time>
      </trkpt>
      <trkpt lat="43.78079" lon="1.57612">
        <ele>127.299408</ele>
        <time>2015-12-24T12:49:39Z</time>
      </trkpt>
      <trkpt lat="43.78103" lon="1.57554">
        <ele>126.6325</ele>
        <time>2015-12-24T12:49:50Z</time>
      </trkpt>
      <trkpt lat="43.78101" lon="1.57513">
        <ele>126.665001</ele>
        <time>2015-12-24T12:49:58Z</time>
      </trkpt>
      <trkpt lat="43.7809" lon="1.57486">
        <ele>126.902496</ele>
        <time>2015-12-24T12:50:04Z</time>
      </trkpt>
      <trkpt lat="43.78056" lon="1.57468">
        <ele>127.657501</ele>
        <time>2015-12-24T12:50:13Z</time>
      </trkpt>
      <trkpt lat="43.7802" lon="1.57467">
        <ele>128.086456</ele>
        <time>2015-12-24T12:50:22Z</time>
      </trkpt>
      <trkpt lat="43.77998" lon="1.57455">
        <ele>128.365417</ele>
        <time>2015-12-24T12:50:28Z</time>
      </trkpt>
      <trkpt lat="43.77984" lon="1.57459">
        <ele>128.781723</ele>
        <time>2015-12-24T12:50:32Z</time>
      </trkpt>
      <trkpt lat="43.77956" lon="1.57452">
        <ele>130.121109</ele>
        <time>2015-12-24T12:50:42Z</time>
      </trkpt>
      <trkpt lat="43.77933" lon="1.57426">
        <ele>133.130005</ele>
        <time>2015-12-24T12:50:56Z</time>
      </trkpt>
      <trkpt lat="43.77923" lon="1.57421">
        <ele>134.272507</ele>
        <time>2015-12-24T12:51:02Z</time>
      </trkpt>
      <trkpt lat="43.77916" lon="1.57409">
        <ele>135.217499</ele>
        <time>2015-12-24T12:51:08Z</time>
      </trkpt>
      <trkpt lat="43.77888" lon="1.57413">
        <ele>138.834991</ele>
        <time>2015-12-24T12:51:27Z</time>
      </trkpt>
      <trkpt lat="43.77868" lon="1.574">
        <ele>142.081253</ele>
        <time>2015-12-24T12:51:40Z</time>
      </trkpt>
      <trkpt lat="43.77841" lon="1.57413">
        <ele>145.325317</ele>
        <time>2015-12-24T12:51:58Z</time>
      </trkpt>
      <trkpt lat="43.77813" lon="1.57401">
        <ele>149.003754</ele>
        <time>2015-12-24T12:52:15Z</time>
      </trkpt>
      <trkpt lat="43.77781" lon="1.57362">
        <ele>151.614395</ele>
        <time>2015-12-24T12:52:30Z</time>
      </trkpt>
      <trkpt lat="43.77761" lon="1.57315">
        <ele>152</ele>
        <time>2015-12-24T12:52:40Z</time>
      </trkpt>
      <trkpt lat="43.77741" lon="1.5731">
        <ele>152</ele>
        <time>2015-12-24T12:52:48Z</time>
      </trkpt>
      <trkpt lat="43.77711" lon="1.57288">
        <ele>151.451324</ele>
        <time>2015-12-24T12:52:59Z</time>
      </trkpt>
      <trkpt lat="43.77654" lon="1.57224">
        <ele>151.219543</ele>
        <time>2015-12-24T12:53:20Z</time>
      </trkpt>
      <trkpt lat="43.77644" lon="1.57224">
        <ele>151.603455</ele>
        <time>2015-12-24T12:53:23Z</time>
      </trkpt>
      <trkpt lat="43.77612" lon="1.572">
        <ele>152.502502</ele>
        <time>2015-12-24T12:53:32Z</time>
      </trkpt>
      <trkpt lat="43.77594" lon="1.57196">
        <ele>152.895004</ele>
        <time>2015-12-24T12:53:37Z</time>
      </trkpt>
      <trkpt lat="43.77562" lon="1.57156">
        <ele>153.607498</ele>
        <time>2015-12-24T12:53:50Z</time>
      </trkpt>
      <trkpt lat="43.77528" lon="1.57134">
        <ele>154</ele>
        <time>2015-12-24T12:53:59Z</time>
      </trkpt>
      <trkpt lat="43.775" lon="1.571">
        <ele>153.778748</ele>
        <time>2015-12-24T12:54:08Z</time>
      </trkpt>
      <trkpt lat="43.77463" lon="1.57072">
        <ele>153.858124</ele>
        <time>2015-12-24T12:54:17Z</time>
      </trkpt>
      <trkpt lat="43.77454" lon="1.57073">
        <ele>154.001648</ele>
        <time>2015-12-24T12:54:20Z</time>
      </trkpt>
      <trkpt lat="43.77455" lon="1.57087">
        <ele>153.986984</ele>
        <time>2015-12-24T12:55:09Z</time>
      </trkpt>
      <trkpt lat="43.77468" lon="1.57117">
        <ele>154</ele>
        <time>2015-12-24T12:55:16Z</time>
      </trkpt>
      <trkpt lat="43.77485" lon="1.57141">
        <ele>154</ele>
        <time>2015-12-24T12:55:21Z</time>
      </trkpt>
      <trkpt lat="43.77523" lon="1.57162">
        <ele>154</ele>
        <time>2015-12-24T12:55:28Z</time>
      </trkpt>
      <trkpt lat="43.77536" lon="1.5719">
        <ele>153.767502</ele>
        <time>2015-12-24T12:55:34Z</time>
      </trkpt>
      <trkpt lat="43.77567" lon="1.57208">
        <ele>153.236877</ele>
        <time>2015-12-24T12:55:39Z</time>
      </trkpt>
      <trkpt lat="43.77577" lon="1.57206">
        <ele>153.137848</ele>
        <time>2015-12-24T12:55:41Z</time>
      </trkpt>
      <trkpt lat="43.77594" lon="1.57217">
        <ele>152.902496</ele>
        <time>2015-12-24T12:55:45Z</time>
      </trkpt>
      <trkpt lat="43.7761" lon="1.57242">
        <ele>152.510803</ele>
        <time>2015-12-24T12:55:48Z</time>
      </trkpt>
      <trkpt lat="43.77627" lon="1.57252">
        <ele>152.124161</ele>
        <time>2015-12-24T12:55:51Z</time>
      </trkpt>
      <trkpt lat="43.77645" lon="1.5728">
        <ele>151.701523</ele>
        <time>2015-12-24T12:55:55Z</time>
      </trkpt>
      <trkpt lat="43.77666" lon="1.57292">
        <ele>151.255066</ele>
        <time>2015-12-24T12:55:58Z</time>
      </trkpt>
      <trkpt lat="43.77711" lon="1.57335">
        <ele>151.879684</ele>
        <time>2015-12-24T12:56:08Z</time>
      </trkpt>
      <trkpt lat="43.77724" lon="1.5734">
        <ele>151.990051</ele>
        <time>2015-12-24T12:56:10Z</time>
      </trkpt>
      <trkpt lat="43.77764" lon="1.57381">
        <ele>151.368546</ele>
        <time>2015-12-24T12:56:19Z</time>
      </trkpt>
      <trkpt lat="43.77771" lon="1.57397">
        <ele>150.762497</ele>
        <time>2015-12-24T12:56:21Z</time>
      </trkpt>
      <trkpt lat="43.77785" lon="1.5741">
        <ele>149.744019</ele>
        <time>2015-12-24T12:56:24Z</time>
      </trkpt>
      <trkpt lat="43.77824" lon="1.57472">
        <ele>143.864182</ele>
        <time>2015-12-24T12:56:33Z</time>
      </trkpt>
      <trkpt lat="43.77824" lon="1.57495">
        <ele>141.839996</ele>
        <time>2015-12-24T12:56:36Z</time>
      </trkpt>
      <trkpt lat="43.77831" lon="1.5752">
        <ele>138.352493</ele>
        <time>2015-12-24T12:56:39Z</time>
      </trkpt>
      <trkpt lat="43.77828" lon="1.5753">
        <ele>137.506256</ele>
        <time>2015-12-24T12:56:40Z</time>
      </trkpt>
      <trkpt lat="43.77809" lon="1.57552">
        <ele>137.066971</ele>
        <time>2015-12-24T12:56:44Z</time>
      </trkpt>
      <trkpt lat="43.778" lon="1.57576">
        <ele>136.363541</ele>
        <time>2015-12-24T12:56:47Z</time>
      </trkpt>
      <trkpt lat="43.7778" lon="1.57606">
        <ele>135.693741</ele>
        <time>2015-12-24T12:56:53Z</time>
      </trkpt>
      <trkpt lat="43.77779" lon="1.5762">
        <ele>138.066833</ele>
        <time>2015-12-24T12:57:02Z</time>
      </trkpt>
      <trkpt lat="43.77788" lon="1.57645">
        <ele>142.470322</ele>
        <time>2015-12-24T12:57:18Z</time>
      </trkpt>
      <trkpt lat="43.7779" lon="1.57683">
        <ele>148.56546</ele>
        <time>2015-12-24T12:57:40Z</time>
      </trkpt>
      <trkpt lat="43.77805" lon="1.57703">
        <ele>151.103836</ele>
        <time>2015-12-24T12:57:59Z</time>
      </trkpt>
      <trkpt lat="43.7781" lon="1.57727">
        <ele>153.729492</ele>
        <time>2015-12-24T12:58:15Z</time>
      </trkpt>
      <trkpt lat="43.77794" lon="1.57742">
        <ele>153.836075</ele>
        <time>2015-12-24T12:58:30Z</time>
      </trkpt>
      <trkpt lat="43.77785" lon="1.57742">
        <ele>153.986359</ele>
        <time>2015-12-24T12:58:38Z</time>
      </trkpt>
      <trkpt lat="43.77767" lon="1.57722">
        <ele>152.727112</ele>
        <time>2015-12-24T12:58:46Z</time>
      </trkpt>
      <trkpt lat="43.7776" lon="1.57697">
        <ele>149.028671</ele>
        <time>2015-12-24T12:58:50Z</time>
      </trkpt>
      <trkpt lat="43.77748" lon="1.57683">
        <ele>146.374756</ele>
        <time>2015-12-24T12:58:53Z</time>
      </trkpt>
      <trkpt lat="43.77722" lon="1.57685">
        <ele>145.282806</ele>
        <time>2015-12-24T12:58:59Z</time>
      </trkpt>
      <trkpt lat="43.77678" lon="1.57663">
        <ele>140.044678</ele>
        <time>2015-12-24T12:59:08Z</time>
      </trkpt>
      <trkpt lat="43.77602" lon="1.57666">
        <ele>139.121872</ele>
        <time>2015-12-24T12:59:33Z</time>
      </trkpt>
      <trkpt lat="43.77522" lon="1.57702">
        <ele>143.058533</ele>
        <time>2015-12-24T12:59:57Z</time>
      </trkpt>
      <trkpt lat="43.77471" lon="1.57741">
        <ele>145.547028</ele>
        <time>2015-12-24T13:00:16Z</time>
      </trkpt>
      <trkpt lat="43.77466" lon="1.57751">
        <ele>146.170654</ele>
        <time>2015-12-24T13:00:22Z</time>
      </trkpt>
      <trkpt lat="43.77465" lon="1.57778">
        <ele>148.116333</ele>
        <time>2015-12-24T13:00:37Z</time>
      </trkpt>
      <trkpt lat="43.77476" lon="1.57798">
        <ele>150.237503</ele>
        <time>2015-12-24T13:00:57Z</time>
      </trkpt>
      <trkpt lat="43.77484" lon="1.57824">
        <ele>151.589996</ele>
        <time>2015-12-24T13:01:12Z</time>
      </trkpt>
      <trkpt lat="43.7748" lon="1.57837">
        <ele>151.722504</ele>
        <time>2015-12-24T13:01:18Z</time>
      </trkpt>
      <trkpt lat="43.7749" lon="1.5789">
        <ele>153.872681</ele>
        <time>2015-12-24T13:01:36Z</time>
      </trkpt>
      <trkpt lat="43.77491" lon="1.57948">
        <ele>155.136246</ele>
        <time>2015-12-24T13:01:46Z</time>
      </trkpt>
      <trkpt lat="43.77498" lon="1.57983">
        <ele>155.852066</ele>
        <time>2015-12-24T13:01:53Z</time>
      </trkpt>
      <trkpt lat="43.7749" lon="1.58">
        <ele>155.763504</ele>
        <time>2015-12-24T13:01:57Z</time>
      </trkpt>
      <trkpt lat="43.77483" lon="1.58049">
        <ele>155.921249</ele>
        <time>2015-12-24T13:02:05Z</time>
      </trkpt>
      <trkpt lat="43.77459" lon="1.58078">
        <ele>155.452209</ele>
        <time>2015-12-24T13:02:11Z</time>
      </trkpt>
      <trkpt lat="43.77442" lon="1.58081">
        <ele>155.242554</ele>
        <time>2015-12-24T13:02:15Z</time>
      </trkpt>
      <trkpt lat="43.77424" lon="1.58096">
        <ele>155.032852</ele>
        <time>2015-12-24T13:02:19Z</time>
      </trkpt>
      <trkpt lat="43.77414" lon="1.58094">
        <ele>154.992767</ele>
        <time>2015-12-24T13:02:21Z</time>
      </trkpt>
      <trkpt lat="43.77382" lon="1.58059">
        <ele>154.417038</ele>
        <time>2015-12-24T13:02:28Z</time>
      </trkpt>
      <trkpt lat="43.77364" lon="1.58052">
        <ele>153.835907</ele>
        <time>2015-12-24T13:02:31Z</time>
      </trkpt>
      <trkpt lat="43.77329" lon="1.58009">
        <ele>151.503647</ele>
        <time>2015-12-24T13:02:38Z</time>
      </trkpt>
      <trkpt lat="43.77317" lon="1.58007">
        <ele>151.245056</ele>
        <time>2015-12-24T13:02:40Z</time>
      </trkpt>
      <trkpt lat="43.77309" lon="1.58015">
        <ele>151.305557</ele>
        <time>2015-12-24T13:02:42Z</time>
      </trkpt>
      <trkpt lat="43.77294" lon="1.58058">
        <ele>152.230591</ele>
        <time>2015-12-24T13:02:48Z</time>
      </trkpt>
      <trkpt lat="43.77284" lon="1.58068">
        <ele>152.3564</ele>
        <time>2015-12-24T13:02:50Z</time>
      </trkpt>
      <trkpt lat="43.77254" lon="1.58073">
        <ele>151.803757</ele>
        <time>2015-12-24T13:02:55Z</time>
      </trkpt>
      <trkpt lat="43.7723" lon="1.58064">
        <ele>151.358826</ele>
        <time>2015-12-24T13:02:59Z</time>
      </trkpt>
      <trkpt lat="43.77209" lon="1.58047">
        <ele>151.595001</ele>
        <time>2015-12-24T13:03:03Z</time>
      </trkpt>
      <trkpt lat="43.77187" lon="1.58055">
        <ele>152.092499</ele>
        <time>2015-12-24T13:03:08Z</time>
      </trkpt>
      <trkpt lat="43.77179" lon="1.58069">
        <ele>152.274994</ele>
        <time>2015-12-24T13:03:12Z</time>
      </trkpt>
      <trkpt lat="43.77154" lon="1.58071">
        <ele>152.8125</ele>
        <time>2015-12-24T13:03:18Z</time>
      </trkpt>
      <trkpt lat="43.77134" lon="1.58079">
        <ele>153.136475</ele>
        <time>2015-12-24T13:03:22Z</time>
      </trkpt>
      <trkpt lat="43.77115" lon="1.58107">
        <ele>153.046234</ele>
        <time>2015-12-24T13:03:29Z</time>
      </trkpt>
      <trkpt lat="43.77125" lon="1.58171">
        <ele>153</ele>
        <time>2015-12-24T13:03:39Z</time>
      </trkpt>
      <trkpt lat="43.77143" lon="1.58207">
        <ele>153.553757</ele>
        <time>2015-12-24T13:03:44Z</time>
      </trkpt>
      <trkpt lat="43.77159" lon="1.58283">
        <ele>155.039993</ele>
        <time>2015-12-24T13:03:54Z</time>
      </trkpt>
      <trkpt lat="43.77167" lon="1.58343">
        <ele>155.856964</ele>
        <time>2015-12-24T13:04:03Z</time>
      </trkpt>
      <trkpt lat="43.77176" lon="1.58374">
        <ele>155.84375</ele>
        <time>2015-12-24T13:04:09Z</time>
      </trkpt>
      <trkpt lat="43.7718" lon="1.58462">
        <ele>154.637497</ele>
        <time>2015-12-24T13:04:23Z</time>
      </trkpt>
      <trkpt lat="43.77174" lon="1.58471">
        <ele>154.619995</ele>
        <time>2015-12-24T13:04:28Z</time>
      </trkpt>
      <trkpt lat="43.77169" lon="1.58464">
        <ele>154.84375</ele>
        <time>2015-12-24T13:04:29Z</time>
      </trkpt>
      <trkpt lat="43.77129" lon="1.58456">
        <ele>155.692673</ele>
        <time>2015-12-24T13:04:39Z</time>
      </trkpt>
      <trkpt lat="43.77116" lon="1.58471">
        <ele>155.790985</ele>
        <time>2015-12-24T13:04:43Z</time>
      </trkpt>
      <trkpt lat="43.771" lon="1.58477">
        <ele>155.904999</ele>
        <time>2015-12-24T13:04:46Z</time>
      </trkpt>
      <trkpt lat="43.7709" lon="1.58488">
        <ele>155.565155</ele>
        <time>2015-12-24T13:04:48Z</time>
      </trkpt>
      <trkpt lat="43.77074" lon="1.58489">
        <ele>155.226273</ele>
        <time>2015-12-24T13:04:51Z</time>
      </trkpt>
      <trkpt lat="43.77064" lon="1.58497">
        <ele>154.87355</ele>
        <time>2015-12-24T13:04:53Z</time>
      </trkpt>
      <trkpt lat="43.7701" lon="1.58505">
        <ele>155</ele>
        <time>2015-12-24T13:05:03Z</time>
      </trkpt>
      <trkpt lat="43.76979" lon="1.58533">
        <ele>155</ele>
        <time>2015-12-24T13:05:11Z</time>
      </trkpt>
      <trkpt lat="43.76955" lon="1.58537">
        <ele>155</ele>
        <time>2015-12-24T13:05:15Z</time>
      </trkpt>
      <trkpt lat="43.76931" lon="1.5853">
        <ele>155</ele>
        <time>2015-12-24T13:05:20Z</time>
      </trkpt>
      <trkpt lat="43.76912" lon="1.58511">
        <ele>155</ele>
        <time>2015-12-24T13:05:25Z</time>
      </trkpt>
      <trkpt lat="43.76876" lon="1.58487">
        <ele>154.932587</ele>
        <time>2015-12-24T13:05:33Z</time>
      </trkpt>
      <trkpt lat="43.76856" lon="1.58454">
        <ele>154.75116</ele>
        <time>2015-12-24T13:05:38Z</time>
      </trkpt>
      <trkpt lat="43.76827" lon="1.58378">
        <ele>155.111649</ele>
        <time>2015-12-24T13:05:49Z</time>
      </trkpt>
      <trkpt lat="43.76812" lon="1.58376">
        <ele>155.388611</ele>
        <time>2015-12-24T13:05:52Z</time>
      </trkpt>
      <trkpt lat="43.76803" lon="1.58384">
        <ele>155.448044</ele>
        <time>2015-12-24T13:05:55Z</time>
      </trkpt>
      <trkpt lat="43.76784" lon="1.58467">
        <ele>155.039749</ele>
        <time>2015-12-24T13:06:07Z</time>
      </trkpt>
      <trkpt lat="43.76786" lon="1.58486">
        <ele>155.00235</ele>
        <time>2015-12-24T13:06:09Z</time>
      </trkpt>
      <trkpt lat="43.76797" lon="1.58507">
        <ele>154.318588</ele>
        <time>2015-12-24T13:06:13Z</time>
      </trkpt>
      <trkpt lat="43.76804" lon="1.58503">
        <ele>154.340439</ele>
        <time>2015-12-24T13:06:15Z</time>
      </trkpt>
      <trkpt lat="43.7682" lon="1.58521">
        <ele>153.968887</ele>
        <time>2015-12-24T13:06:17Z</time>
      </trkpt>
      <trkpt lat="43.76824" lon="1.5855">
        <ele>153.761475</ele>
        <time>2015-12-24T13:06:22Z</time>
      </trkpt>
      <trkpt lat="43.76814" lon="1.58582">
        <ele>153.036957</ele>
        <time>2015-12-24T13:06:27Z</time>
      </trkpt>
      <trkpt lat="43.76818" lon="1.58609">
        <ele>152.874832</ele>
        <time>2015-12-24T13:06:30Z</time>
      </trkpt>
      <trkpt lat="43.7686" lon="1.58714">
        <ele>153.527649</ele>
        <time>2015-12-24T13:06:43Z</time>
      </trkpt>
      <trkpt lat="43.76868" lon="1.58749">
        <ele>152.241272</ele>
        <time>2015-12-24T13:06:49Z</time>
      </trkpt>
      <trkpt lat="43.76901" lon="1.58812">
        <ele>143.939499</ele>
        <time>2015-12-24T13:06:57Z</time>
      </trkpt>
      <trkpt lat="43.76893" lon="1.58828">
        <ele>141.599899</ele>
        <time>2015-12-24T13:07:02Z</time>
      </trkpt>
      <trkpt lat="43.769" lon="1.58834">
        <ele>139.532745</ele>
        <time>2015-12-24T13:07:05Z</time>
      </trkpt>
      <trkpt lat="43.76914" lon="1.58833">
        <ele>138.168365</ele>
        <time>2015-12-24T13:07:08Z</time>
      </trkpt>
      <trkpt lat="43.76905" lon="1.58858">
        <ele>133.955002</ele>
        <time>2015-12-24T13:07:14Z</time>
      </trkpt>
      <trkpt lat="43.76878" lon="1.58887">
        <ele>133.617752</ele>
        <time>2015-12-24T13:07:19Z</time>
      </trkpt>
      <trkpt lat="43.7687" lon="1.58889">
        <ele>133.941193</ele>
        <time>2015-12-24T13:07:20Z</time>
      </trkpt>
      <trkpt lat="43.76851" lon="1.58918">
        <ele>130.899979</ele>
        <time>2015-12-24T13:07:24Z</time>
      </trkpt>
      <trkpt lat="43.76823" lon="1.58948">
        <ele>129.279907</ele>
        <time>2015-12-24T13:07:29Z</time>
      </trkpt>
      <trkpt lat="43.7682" lon="1.58967">
        <ele>127.537003</ele>
        <time>2015-12-24T13:07:32Z</time>
      </trkpt>
      <trkpt lat="43.76823" lon="1.58978">
        <ele>126.544777</ele>
        <time>2015-12-24T13:07:34Z</time>
      </trkpt>
      <trkpt lat="43.7683" lon="1.58984">
        <ele>125.980003</ele>
        <time>2015-12-24T13:07:35Z</time>
      </trkpt>
      <trkpt lat="43.76833" lon="1.58979">
        <ele>126.397263</ele>
        <time>2015-12-24T13:07:36Z</time>
      </trkpt>
      <trkpt lat="43.76877" lon="1.58973">
        <ele>125.783371</ele>
        <time>2015-12-24T13:07:42Z</time>
      </trkpt>
      <trkpt lat="43.76906" lon="1.58976">
        <ele>124.815414</ele>
        <time>2015-12-24T13:07:45Z</time>
      </trkpt>
      <trkpt lat="43.76913" lon="1.58966">
        <ele>125.013504</ele>
        <time>2015-12-24T13:07:46Z</time>
      </trkpt>
      <trkpt lat="43.7697" lon="1.5896">
        <ele>123.745003</ele>
        <time>2015-12-24T13:07:54Z</time>
      </trkpt>
      <trkpt lat="43.76984" lon="1.5897">
        <ele>123.312813</ele>
        <time>2015-12-24T13:07:56Z</time>
      </trkpt>
      <trkpt lat="43.77025" lon="1.58972">
        <ele>123.279701</ele>
        <time>2015-12-24T13:08:01Z</time>
      </trkpt>
      <trkpt lat="43.77034" lon="1.58983">
        <ele>123.400002</ele>
        <time>2015-12-24T13:08:02Z</time>
      </trkpt>
      <trkpt lat="43.77046" lon="1.5898">
        <ele>123.635719</ele>
        <time>2015-12-24T13:08:04Z</time>
      </trkpt>
      <trkpt lat="43.7706" lon="1.58988">
        <ele>124.061249</ele>
        <time>2015-12-24T13:08:24Z</time>
      </trkpt>
    </trkseg>
  </trk>
</gpx>